Weather reports worldwide

Advertisment
East malling, United Kingdom (99008): temperature & dewpoint: 13.07.2018 12:00:00 - 19.07.2018 12:00:00 (BST)East malling, United Kingdom (99008): temperature -20cm: 13.07.2018 12:00:00 - 19.07.2018 12:00:00 (BST)East malling, United Kingdom (99008): wind speed: 13.07.2018 12:00:00 - 19.07.2018 12:00:00 (BST)East malling, United Kingdom (99008): wind direction: 13.07.2018 12:00:00 - 19.07.2018 12:00:00 (BST)East malling, United Kingdom (99008): reduced air pressure: 13.07.2018 12:00:00 - 19.07.2018 12:00:00 (BST)East malling, United Kingdom (99008): sunshine duration: 13.07.2018 12:00:00 - 19.07.2018 12:00:00 (BST)East malling, United Kingdom (99008): precipitation: 13.07.2018 12:00:00 - 19.07.2018 12:00:00 (BST)
Date & Time tt [°C] td [°C] tt -20cm [°C] ff [km/h] ff [kn] dd ppp [hPa] sd [min] rr [mm]
19.07.2018 12:00:00 24,9 10,3 - 9 5 SSE 1019,1 42 0,0
19.07.2018 11:00:00 23,8 10,7 - 9 5 ESE 1019,3 48 0,0
19.07.2018 10:00:00 21,0 11,6 21,7 4 2 S 1019,6 6 0,0
19.07.2018 09:00:00 20,2 13,1 - 4 2 E 1019,7 36 0,0
19.07.2018 08:00:00 17,2 12,3 - 2 1 NE 1019,6 18 0,0
19.07.2018 07:00:00 14,1 11,9 - 2 1 NE 1019,7 42 0,0
19.07.2018 06:00:00 11,2 10,3 - 2 1 SSW 1019,4 24 0,0
19.07.2018 05:00:00 11,2 10,1 - 2 1 S 1019,8 0 0,0
19.07.2018 04:00:00 11,2 9,9 - 4 2 SW 1019,7 0 0,0
19.07.2018 03:00:00 12,0 10,7 - 4 2 SW 1019,9 0 0,0
19.07.2018 02:00:00 11,6 10,2 - 0 0 N 1020,0 0 0,0
19.07.2018 01:00:00 12,5 10,4 - 2 1 SSW 1019,6 - 0,0
19.07.2018 00:00:00 14,1 11,0 - 5 3 S 1019,2 0 0,0
18.07.2018 23:00:00 14,6 11,0 - 4 2 S 1019,1 0 0,0
18.07.2018 22:00:00 16,1 10,5 - 4 2 SSW 1019,0 0 0,0
18.07.2018 21:00:00 19,7 11,9 - 8 4 SSW 1018,7 18 0,0
18.07.2018 20:00:00 22,6 11,6 - 9 5 W 1018,3 48 0,0
18.07.2018 19:00:00 24,2 11,0 - 4 2 WSW 1018,1 36 0,0
18.07.2018 18:00:00 23,8 11,1 - 4 2 WNW 1018,1 24 0,0
18.07.2018 17:00:00 23,2 11,3 - 8 4 WSW 1018,3 0 0,0
18.07.2018 16:00:00 23,1 11,5 - 8 4 SSW 1018,4 6 0,0
18.07.2018 15:00:00 23,8 9,6 - 9 5 SSE 1018,4 54 0,0
18.07.2018 14:00:00 23,0 10,6 - 11 6 WSW 1018,5 0 0,0
18.07.2018 13:00:00 23,0 9,8 - 5 3 WNW 1018,6 36 0,0
18.07.2018 12:00:00 22,0 10,4 - 9 5 S 1018,9 18 0,0
18.07.2018 11:00:00 20,7 11,4 - 5 3 SW 1018,9 36 0,0
18.07.2018 10:00:00 21,1 12,5 21,9 5 3 S 1019,1 54 0,0
18.07.2018 09:00:00 18,7 13,8 - 2 1 NNW 1019,0 18 0,0
18.07.2018 08:00:00 16,1 13,3 - 4 2 W 1019,0 6 0,0
18.07.2018 07:00:00 14,5 12,3 - 4 2 SE 1018,8 30 0,0
18.07.2018 06:00:00 12,6 11,4 - 5 3 SSE 1018,4 6 0,0
18.07.2018 05:00:00 12,9 11,1 - 4 2 SSE 1018,2 0 0,0
18.07.2018 04:00:00 13,1 11,6 - 4 2 SSE 1018,1 0 0,0
18.07.2018 03:00:00 13,1 11,3 - 5 3 S 1018,0 0 0,0
18.07.2018 02:00:00 13,2 11,2 - 4 2 SSE 1018,0 0 0,0
18.07.2018 01:00:00 14,3 11,7 - 5 3 SSE 1018,0 - 0,0
18.07.2018 00:00:00 15,5 11,7 - 8 4 SW 1018,0 0 0,0
17.07.2018 23:00:00 15,5 12,0 - 9 5 SSW 1017,7 0 0,0
17.07.2018 22:00:00 16,6 11,9 - 9 5 SSW 1017,6 0 0,0
17.07.2018 21:00:00 18,8 12,0 - 8 4 SSW 1017,1 30 0,0
17.07.2018 20:00:00 20,5 12,0 - 11 6 SW 1016,7 48 0,0
17.07.2018 19:00:00 21,7 11,0 - 15 8 W 1016,2 48 0,0
17.07.2018 18:00:00 21,9 11,5 - 15 8 WSW 1016,2 24 0,0
17.07.2018 17:00:00 21,6 11,9 - 11 6 WSW 1016,3 0 0,0
17.07.2018 16:00:00 20,7 12,2 - 13 7 SW 1016,6 0 0,0
17.07.2018 15:00:00 21,0 12,6 - 16 9 SSW 1016,6 6 0,0
17.07.2018 14:00:00 22,5 9,2 - 16 9 SW 1016,5 24 0,0
17.07.2018 13:00:00 22,9 10,3 - 22 12 WSW 1016,4 36 0,0
17.07.2018 12:00:00 21,5 9,1 - 16 9 W 1016,2 36 0,0
17.07.2018 11:00:00 21,6 9,5 - 15 8 W 1016,2 60 0,0
17.07.2018 10:00:00 20,4 9,9 22,9 15 8 W 1015,9 60 0,0
17.07.2018 09:00:00 18,9 10,5 - 15 8 W 1015,9 60 0,0
17.07.2018 08:00:00 16,8 11,2 - 15 8 W 1015,7 54 0,0
17.07.2018 07:00:00 15,2 10,9 - 11 6 WSW 1015,5 60 0,0
17.07.2018 06:00:00 13,1 10,5 - 5 3 SSW 1014,9 24 0,0
17.07.2018 05:00:00 13,3 9,9 - 8 4 SSW 1014,5 0 0,0
17.07.2018 04:00:00 15,5 10,0 - 5 3 WSW 1014,3 0 0,0
17.07.2018 03:00:00 15,3 10,5 - 4 2 WSW 1014,1 0 0,0
17.07.2018 02:00:00 16,5 12,5 - 8 4 SW 1014,1 0 0,0
17.07.2018 01:00:00 17,5 12,6 - 9 5 SSW 1013,9 - 0,0
17.07.2018 00:00:00 18,7 12,1 - 9 5 SW 1013,7 0 0,0
16.07.2018 23:00:00 19,9 11,9 - 13 7 SW 1013,3 0 0,0
16.07.2018 22:00:00 20,8 10,5 - 9 5 SSW 1013,0 0 0,0
16.07.2018 21:00:00 22,9 10,5 - 9 5 SW 1012,3 42 0,0
16.07.2018 20:00:00 24,9 11,7 - 13 7 SSW 1012,0 60 0,0
16.07.2018 19:00:00 25,9 11,5 - 16 9 WSW 1011,8 18 0,0
16.07.2018 18:00:00 26,1 11,1 - 18 10 WSW 1011,6 0 0,0
16.07.2018 17:00:00 27,1 11,2 - 15 8 WSW 1011,6 18 0,0
16.07.2018 16:00:00 28,0 11,0 - 11 6 WSW 1011,7 30 0,0
16.07.2018 15:00:00 29,4 11,0 - 9 5 SW 1012,0 48 0,0
16.07.2018 14:00:00 29,2 10,8 - 13 7 SW 1012,5 48 0,0
16.07.2018 13:00:00 28,8 11,3 - 4 2 NNW 1012,9 54 0,0
16.07.2018 12:00:00 27,1 10,4 - 8 4 NW 1013,2 60 0,0
16.07.2018 11:00:00 26,4 11,2 - 8 4 NW 1013,5 60 0,0
16.07.2018 10:00:00 25,0 11,6 22,7 9 5 N 1013,7 60 0,0
16.07.2018 09:00:00 23,5 12,4 - 5 3 N 1013,9 54 0,0
16.07.2018 08:00:00 19,7 13,6 - 2 1 WNW 1014,0 60 0,0
16.07.2018 07:00:00 16,0 13,0 - 2 1 N 1013,9 60 0,0
16.07.2018 06:00:00 12,3 11,7 - 2 1 S 1014,1 24 0,0
16.07.2018 05:00:00 11,3 10,5 - 2 1 SSW 1014,3 0 0,0
16.07.2018 04:00:00 11,9 10,7 - 4 2 S 1014,3 0 0,0
16.07.2018 03:00:00 13,0 11,4 - 4 2 S 1014,5 0 0,0
16.07.2018 02:00:00 13,4 11,3 - 0 0 N 1014,8 0 0,0
16.07.2018 01:00:00 14,6 11,4 - 4 2 S 1014,9 - 0,0
16.07.2018 00:00:00 17,0 12,3 - 4 2 S 1014,9 0 0,0
15.07.2018 23:00:00 18,1 11,6 - 2 1 SSE 1014,8 0 0,0
15.07.2018 22:00:00 20,8 11,4 - 9 5 S 1014,4 6 0,0
15.07.2018 21:00:00 22,9 10,8 - 9 5 S 1014,1 48 0,0
15.07.2018 20:00:00 25,7 9,3 - 11 6 S 1013,6 60 0,0
15.07.2018 19:00:00 27,8 5,4 - 13 7 SSW 1013,4 60 0,0
15.07.2018 18:00:00 28,7 6,6 - 13 7 S 1013,7 60 0,0
15.07.2018 17:00:00 28,8 8,9 - 8 4 S 1013,9 60 0,0
15.07.2018 16:00:00 29,3 9,4 - 8 4 S 1014,3 60 0,0
15.07.2018 15:00:00 28,4 7,8 - 11 6 WSW 1014,7 60 0,0
15.07.2018 14:00:00 28,0 9,7 - 8 4 SW 1015,2 60 0,0
15.07.2018 13:00:00 27,3 10,0 - 9 5 SSE 1015,7 60 0,0
15.07.2018 12:00:00 26,5 11,0 - 11 6 SW 1016,2 60 0,0
15.07.2018 11:00:00 25,4 11,6 - 9 5 SSW 1016,6 60 0,0
15.07.2018 10:00:00 24,9 10,8 22,0 4 2 ESE 1016,8 60 0,0
15.07.2018 09:00:00 22,9 13,7 - 2 1 NE 1017,1 60 0,0
15.07.2018 08:00:00 19,3 13,5 - 2 1 NNW 1017,4 60 0,0
15.07.2018 07:00:00 15,6 13,5 - 0 0 N 1017,4 60 0,0
15.07.2018 06:00:00 11,2 10,8 - 2 1 W 1017,4 48 0,0
15.07.2018 05:00:00 10,6 9,9 - 0 0 N 1017,6 0 0,0
15.07.2018 04:00:00 11,3 10,3 - 4 2 S 1018,0 0 0,0
15.07.2018 03:00:00 12,3 11,3 - 2 1 SW 1018,2 0 0,0
15.07.2018 02:00:00 13,4 12,0 - 2 1 SW 1018,6 0 0,0
15.07.2018 01:00:00 13,9 11,5 - 2 1 SW 1018,7 - 0,0
15.07.2018 00:00:00 15,2 12,5 - 2 1 W 1018,8 0 0,0
14.07.2018 23:00:00 17,6 12,7 - 4 2 S 1018,7 0 0,0
14.07.2018 22:00:00 19,6 13,0 - 9 5 SSE 1018,4 0 0,0
14.07.2018 21:00:00 21,7 12,9 - 8 4 S 1018,1 42 0,0
14.07.2018 20:00:00 24,3 12,8 - 8 4 S 1018,0 60 0,0
14.07.2018 19:00:00 25,4 13,2 - 13 7 SSE 1018,1 60 0,0
14.07.2018 18:00:00 26,5 14,0 - 9 5 SE 1018,3 42 0,0
14.07.2018 17:00:00 26,2 13,7 - 13 7 E 1018,4 48 0,0
14.07.2018 16:00:00 26,4 13,7 - 9 5 E 1018,8 54 0,0
14.07.2018 15:00:00 26,4 14,2 - 11 6 E 1019,3 42 0,0
14.07.2018 14:00:00 25,2 13,3 - 4 2 WSW 1019,9 18 0,0
14.07.2018 13:00:00 25,8 13,4 - 8 4 S 1020,1 60 0,0
14.07.2018 12:00:00 23,9 13,6 - 5 3 S 1020,9 60 0,0
14.07.2018 11:00:00 22,7 13,6 - 4 2 W 1021,2 60 0,0
14.07.2018 10:00:00 21,0 13,7 21,5 5 3 S 1021,5 60 0,0
14.07.2018 09:00:00 18,7 13,6 - 8 4 SSW 1021,8 60 0,0
14.07.2018 08:00:00 16,8 13,1 - 5 3 SSE 1022,0 60 0,0
14.07.2018 07:00:00 14,2 12,6 - 2 1 N 1021,9 60 0,0
14.07.2018 06:00:00 11,7 11,2 - 4 2 ENE 1021,7 54 0,0
14.07.2018 05:00:00 10,9 10,4 - 4 2 SW 1021,6 0 0,0
14.07.2018 04:00:00 11,2 10,6 - 5 3 SW 1021,9 0 0,0
14.07.2018 03:00:00 11,7 10,9 - 4 2 WSW 1021,9 0 0,0
14.07.2018 02:00:00 11,9 11,0 - 2 1 NNW 1022,3 0 0,0
14.07.2018 01:00:00 12,8 11,5 - 5 3 S 1022,6 - 0,0
14.07.2018 00:00:00 13,3 11,7 - 4 2 SSW 1022,7 0 0,0
13.07.2018 23:00:00 15,0 12,1 - 5 3 E 1022,5 0 0,0
13.07.2018 22:00:00 16,1 12,4 - 5 3 E 1022,4 0 0,0
13.07.2018 21:00:00 17,6 12,5 - 5 3 E 1021,8 18 0,0
13.07.2018 20:00:00 20,3 12,6 - 13 7 ENE 1021,0 60 0,0
13.07.2018 19:00:00 21,9 12,7 - 13 7 ENE 1020,9 60 0,0
13.07.2018 18:00:00 23,8 12,5 - 11 6 NE 1020,8 54 0,0
13.07.2018 17:00:00 23,5 12,1 - 9 5 ENE 1021,1 54 0,0
13.07.2018 16:00:00 23,8 12,2 - 13 7 NE 1021,6 60 0,0
13.07.2018 15:00:00 23,6 12,6 - 13 7 NNE 1022,0 60 0,0
13.07.2018 14:00:00 22,3 11,7 - 9 5 N 1022,3 60 0,0
13.07.2018 13:00:00 21,5 12,4 - 8 4 NE 1022,7 60 0,0
13.07.2018 12:00:00 20,1 12,9 - 8 4 N 1023,1 54 0,0

tt = temperature
td = dewpoint
tt -20cm = temperature -20cm
ff = wind speed
dd = wind direction
ppp = reduced air pressure
sd = sunshine duration
rr = precipitation

Next stations